sensor_id;sensor_type;location;lat;lon;timestamp;pressure;altitude;pressure_sealevel;temperature;humidity
54546;BME280;40444;45.184;9.850;2024-03-08T00:01:47;100891.34;;;8.66;100.00
54546;BME280;40444;45.184;9.850;2024-03-08T00:04:16;100899.47;;;8.53;100.00
54546;BME280;40444;45.184;9.850;2024-03-08T00:06:45;100900.03;;;8.45;100.00
54546;BME280;40444;45.184;9.850;2024-03-08T00:09:14;100899.81;;;8.48;100.00
54546;BME280;40444;45.184;9.850;2024-03-08T00:11:44;100896.25;;;8.37;100.00
54546;BME280;40444;45.184;9.850;2024-03-08T00:14:13;100891.53;;;8.40;100.00
54546;BME280;40444;45.184;9.850;2024-03-08T00:16:42;100896.59;;;8.67;100.00
54546;BME280;40444;45.184;9.850;2024-03-08T00:19:12;100904.69;;;8.66;100.00
54546;BME280;40444;45.184;9.850;2024-03-08T00:21:40;100908.03;;;8.80;100.00
54546;BME280;40444;45.184;9.850;2024-03-08T00:24:10;100912.75;;;8.77;100.00
54546;BME280;40444;45.184;9.850;2024-03-08T00:26:40;100909.25;;;8.88;100.00
54546;BME280;40444;45.184;9.850;2024-03-08T00:29:10;100918.38;;;8.85;100.00
54546;BME280;40444;45.184;9.850;2024-03-08T00:31:41;100917.75;;;8.93;100.00
54546;BME280;40444;45.184;9.850;2024-03-08T00:34:10;100912.66;;;9.01;100.00
54546;BME280;40444;45.184;9.850;2024-03-08T00:36:40;100908.16;;;9.01;100.00
54546;BME280;40444;45.184;9.850;2024-03-08T00:39:09;100910.47;;;9.06;100.00
54546;BME280;40444;45.184;9.850;2024-03-08T00:41:38;100913.06;;;9.07;100.00
54546;BME280;40444;45.184;9.850;2024-03-08T00:44:06;100909.53;;;9.18;100.00
54546;BME280;40444;45.184;9.850;2024-03-08T00:46:35;100907.31;;;9.23;100.00
54546;BME280;40444;45.184;9.850;2024-03-08T00:49:04;100917.56;;;9.29;100.00
54546;BME280;40444;45.184;9.850;2024-03-08T00:51:32;100917.19;;;9.23;100.00
54546;BME280;40444;45.184;9.850;2024-03-08T00:54:01;100909.75;;;9.15;100.00
54546;BME280;40444;45.184;9.850;2024-03-08T00:56:30;100913.16;;;9.17;100.00
54546;BME280;40444;45.184;9.850;2024-03-08T00:58:59;100914.16;;;9.16;100.00
54546;BME280;40444;45.184;9.850;2024-03-08T01:01:28;100910.00;;;9.12;100.00
54546;BME280;40444;45.184;9.850;2024-03-08T01:03:57;100899.94;;;9.16;100.00
54546;BME280;40444;45.184;9.850;2024-03-08T01:06:27;100900.28;;;9.22;100.00
54546;BME280;40444;45.184;9.850;2024-03-08T01:08:55;100892.88;;;9.03;100.00
54546;BME280;40444;45.184;9.850;2024-03-08T01:11:24;100887.84;;;8.88;100.00
54546;BME280;40444;45.184;9.850;2024-03-08T01:13:54;100885.94;;;8.90;100.00
54546;BME280;40444;45.184;9.850;2024-03-08T01:16:22;100884.69;;;8.71;100.00
54546;BME280;40444;45.184;9.850;2024-03-08T01:18:51;100877.78;;;8.80;100.00
54546;BME280;40444;45.184;9.850;2024-03-08T01:21:20;100881.13;;;8.59;100.00
54546;BME280;40444;45.184;9.850;2024-03-08T01:23:49;100881.00;;;8.50;100.00
54546;BME280;40444;45.184;9.850;2024-03-08T01:26:18;100883.78;;;8.48;100.00
54546;BME280;40444;45.184;9.850;2024-03-08T01:28:46;100876.47;;;8.39;100.00
54546;BME280;40444;45.184;9.850;2024-03-08T01:31:15;100868.16;;;8.31;100.00
54546;BME280;40444;45.184;9.850;2024-03-08T01:33:44;100869.06;;;8.43;100.00
54546;BME280;40444;45.184;9.850;2024-03-08T01:36:12;100878.31;;;8.50;100.00
54546;BME280;40444;45.184;9.850;2024-03-08T01:38:43;100867.53;;;8.51;100.00
54546;BME280;40444;45.184;9.850;2024-03-08T01:41:12;100875.31;;;8.66;100.00
54546;BME280;40444;45.184;9.850;2024-03-08T01:43:41;100870.22;;;8.74;100.00
54546;BME280;40444;45.184;9.850;2024-03-08T01:46:11;100873.03;;;8.83;100.00
54546;BME280;40444;45.184;9.850;2024-03-08T01:48:41;100869.66;;;8.93;100.00
54546;BME280;40444;45.184;9.850;2024-03-08T01:51:10;100877.19;;;8.99;100.00
54546;BME280;40444;45.184;9.850;2024-03-08T01:53:42;100875.34;;;9.10;100.00
54546;BME280;40444;45.184;9.850;2024-03-08T01:56:14;100867.84;;;9.27;100.00
54546;BME280;40444;45.184;9.850;2024-03-08T01:58:43;100861.03;;;9.23;100.00
54546;BME280;40444;45.184;9.850;2024-03-08T02:01:12;100864.19;;;9.05;100.00
54546;BME280;40444;45.184;9.850;2024-03-08T02:03:44;100866.97;;;9.15;100.00
54546;BME280;40444;45.184;9.850;2024-03-08T02:06:13;100866.50;;;9.10;100.00
54546;BME280;40444;45.184;9.850;2024-03-08T02:08:46;100860.66;;;9.27;100.00
54546;BME280;40444;45.184;9.850;2024-03-08T02:11:15;100855.69;;;9.34;100.00
54546;BME280;40444;45.184;9.850;2024-03-08T02:13:44;100856.78;;;9.43;100.00
54546;BME280;40444;45.184;9.850;2024-03-08T02:16:20;100855.88;;;9.53;100.00
54546;BME280;40444;45.184;9.850;2024-03-08T02:18:49;100860.91;;;9.35;100.00
54546;BME280;40444;45.184;9.850;2024-03-08T02:21:18;100859.06;;;9.47;100.00
54546;BME280;40444;45.184;9.850;2024-03-08T02:23:46;100859.53;;;9.52;100.00
54546;BME280;40444;45.184;9.850;2024-03-08T02:26:16;100851.06;;;9.47;100.00
54546;BME280;40444;45.184;9.850;2024-03-08T02:28:45;100848.25;;;9.49;100.00
54546;BME280;40444;45.184;9.850;2024-03-08T02:31:14;100857.59;;;9.54;100.00
54546;BME280;40444;45.184;9.850;2024-03-08T02:33:42;100853.59;;;9.60;100.00
54546;BME280;40444;45.184;9.850;2024-03-08T02:36:11;100849.41;;;9.67;100.00
54546;BME280;40444;45.184;9.850;2024-03-08T02:38:41;100854.84;;;9.77;100.00
54546;BME280;40444;45.184;9.850;2024-03-08T02:41:10;100855.97;;;9.74;100.00
54546;BME280;40444;45.184;9.850;2024-03-08T02:43:39;100857.91;;;9.72;100.00
54546;BME280;40444;45.184;9.850;2024-03-08T02:46:07;100861.56;;;9.71;100.00
54546;BME280;40444;45.184;9.850;2024-03-08T02:48:36;100866.09;;;9.59;100.00
54546;BME280;40444;45.184;9.850;2024-03-08T02:51:05;100862.97;;;9.43;100.00
54546;BME280;40444;45.184;9.850;2024-03-08T02:53:34;100863.94;;;9.42;100.00
54546;BME280;40444;45.184;9.850;2024-03-08T02:56:03;100867.47;;;9.43;100.00
54546;BME280;40444;45.184;9.850;2024-03-08T02:58:33;100860.91;;;9.35;100.00
54546;BME280;40444;45.184;9.850;2024-03-08T03:01:02;100864.31;;;9.38;100.00
54546;BME280;40444;45.184;9.850;2024-03-08T03:03:31;100859.06;;;9.36;100.00
54546;BME280;40444;45.184;9.850;2024-03-08T03:06:01;100846.53;;;9.48;100.00
54546;BME280;40444;45.184;9.850;2024-03-08T03:08:29;100852.38;;;9.42;100.00
54546;BME280;40444;45.184;9.850;2024-03-08T03:10:58;100851.66;;;9.40;100.00
54546;BME280;40444;45.184;9.850;2024-03-08T03:13:27;100853.13;;;9.32;100.00
54546;BME280;40444;45.184;9.850;2024-03-08T03:15:57;100859.47;;;9.20;100.00
54546;BME280;40444;45.184;9.850;2024-03-08T03:18:26;100858.97;;;9.26;100.00
54546;BME280;40444;45.184;9.850;2024-03-08T03:20:55;100860.94;;;9.24;100.00
54546;BME280;40444;45.184;9.850;2024-03-08T03:23:24;100857.75;;;9.19;100.00
54546;BME280;40444;45.184;9.850;2024-03-08T03:25:55;100862.88;;;9.33;100.00
54546;BME280;40444;45.184;9.850;2024-03-08T03:28:25;100858.47;;;9.32;100.00
54546;BME280;40444;45.184;9.850;2024-03-08T03:30:56;100865.66;;;9.43;100.00
54546;BME280;40444;45.184;9.850;2024-03-08T03:33:27;100870.34;;;9.51;100.00
54546;BME280;40444;45.184;9.850;2024-03-08T03:35:55;100867.81;;;9.60;100.00
54546;BME280;40444;45.184;9.850;2024-03-08T03:38:24;100871.44;;;9.59;100.00
54546;BME280;40444;45.184;9.850;2024-03-08T03:40:54;100875.47;;;9.54;100.00
54546;BME280;40444;45.184;9.850;2024-03-08T03:43:25;100864.53;;;9.57;100.00
54546;BME280;40444;45.184;9.850;2024-03-08T03:45:54;100867.81;;;9.60;100.00
54546;BME280;40444;45.184;9.850;2024-03-08T03:48:23;100860.50;;;9.62;100.00
54546;BME280;40444;45.184;9.850;2024-03-08T03:50:52;100867.81;;;9.60;100.00
54546;BME280;40444;45.184;9.850;2024-03-08T03:53:21;100861.63;;;9.60;100.00
54546;BME280;40444;45.184;9.850;2024-03-08T03:55:49;100871.94;;;9.53;100.00
54546;BME280;40444;45.184;9.850;2024-03-08T03:58:18;100868.03;;;9.57;100.00
54546;BME280;40444;45.184;9.850;2024-03-08T04:00:51;100877.28;;;9.53;100.00
54546;BME280;40444;45.184;9.850;2024-03-08T04:03:19;100872.44;;;9.47;100.00
54546;BME280;40444;45.184;9.850;2024-03-08T04:05:48;100867.94;;;9.48;100.00
54546;BME280;40444;45.184;9.850;2024-03-08T04:08:17;100865.75;;;9.42;100.00
54546;BME280;40444;45.184;9.850;2024-03-08T04:10:46;100872.91;;;9.41;100.00
54546;BME280;40444;45.184;9.850;2024-03-08T04:13:15;100868.69;;;9.27;100.00
54546;BME280;40444;45.184;9.850;2024-03-08T04:15:44;100869.44;;;9.07;100.00
54546;BME280;40444;45.184;9.850;2024-03-08T04:18:17;100869.06;;;9.23;100.00
54546;BME280;40444;45.184;9.850;2024-03-08T04:20:47;100868.94;;;9.13;100.00
54546;BME280;40444;45.184;9.850;2024-03-08T04:23:16;100866.41;;;9.11;100.00
54546;BME280;40444;45.184;9.850;2024-03-08T04:25:46;100870.00;;;9.10;100.00
54546;BME280;40444;45.184;9.850;2024-03-08T04:28:14;100863.00;;;8.98;100.00
54546;BME280;40444;45.184;9.850;2024-03-08T04:30:43;100857.63;;;8.87;100.00
54546;BME280;40444;45.184;9.850;2024-03-08T04:33:14;100862.00;;;8.77;100.00
54546;BME280;40444;45.184;9.850;2024-03-08T04:35:45;100858.94;;;8.70;100.00
54546;BME280;40444;45.184;9.850;2024-03-08T04:38:14;100857.59;;;8.65;100.00
54546;BME280;40444;45.184;9.850;2024-03-08T04:40:43;100856.97;;;8.61;100.00
54546;BME280;40444;45.184;9.850;2024-03-08T04:43:12;100865.50;;;8.66;100.00
54546;BME280;40444;45.184;9.850;2024-03-08T04:45:42;100868.19;;;8.77;100.00
54546;BME280;40444;45.184;9.850;2024-03-08T04:48:12;100873.25;;;8.58;100.00
54546;BME280;40444;45.184;9.850;2024-03-08T04:50:41;100862.31;;;8.50;100.00
54546;BME280;40444;45.184;9.850;2024-03-08T04:53:10;100871.44;;;8.58;100.00
54546;BME280;40444;45.184;9.850;2024-03-08T04:55:39;100875.66;;;8.61;100.00
54546;BME280;40444;45.184;9.850;2024-03-08T04:58:08;100876.88;;;8.57;100.00
54546;BME280;40444;45.184;9.850;2024-03-08T05:00:36;100877.88;;;8.67;100.00
54546;BME280;40444;45.184;9.850;2024-03-08T05:03:05;100878.88;;;8.77;100.00
54546;BME280;40444;45.184;9.850;2024-03-08T05:05:34;100875.47;;;8.75;100.00
54546;BME280;40444;45.184;9.850;2024-03-08T05:08:03;100870.84;;;8.77;100.00
54546;BME280;40444;45.184;9.850;2024-03-08T05:10:32;100879.63;;;8.91;100.00
54546;BME280;40444;45.184;9.850;2024-03-08T05:13:01;100875.25;;;8.90;100.00
54546;BME280;40444;45.184;9.850;2024-03-08T05:15:30;100885.44;;;8.84;100.00
54546;BME280;40444;45.184;9.850;2024-03-08T05:18:03;100882.41;;;8.89;100.00
54546;BME280;40444;45.184;9.850;2024-03-08T05:20:32;100884.81;;;8.92;100.00
54546;BME280;40444;45.184;9.850;2024-03-08T05:23:01;100885.19;;;8.88;100.00
54546;BME280;40444;45.184;9.850;2024-03-08T05:25:30;100885.44;;;8.96;100.00
54546;BME280;40444;45.184;9.850;2024-03-08T05:27:59;100881.06;;;9.06;100.00
54546;BME280;40444;45.184;9.850;2024-03-08T05:30:28;100883.75;;;9.17;100.00
54546;BME280;40444;45.184;9.850;2024-03-08T05:32:57;100884.84;;;9.15;100.00
54546;BME280;40444;45.184;9.850;2024-03-08T05:35:26;100891.56;;;9.20;100.00
54546;BME280;40444;45.184;9.850;2024-03-08T05:37:55;100885.94;;;9.12;100.00
54546;BME280;40444;45.184;9.850;2024-03-08T05:40:23;100893.97;;;9.12;100.00
54546;BME280;40444;45.184;9.850;2024-03-08T05:42:52;100894.94;;;9.11;100.00
54546;BME280;40444;45.184;9.850;2024-03-08T05:45:21;100888.84;;;9.09;100.00
54546;BME280;40444;45.184;9.850;2024-03-08T05:47:50;100902.97;;;9.11;100.00
54546;BME280;40444;45.184;9.850;2024-03-08T05:50:20;100903.81;;;9.11;100.00
54546;BME280;40444;45.184;9.850;2024-03-08T05:52:48;100904.31;;;9.17;100.00
54546;BME280;40444;45.184;9.850;2024-03-08T05:55:18;100898.81;;;9.18;100.00
54546;BME280;40444;45.184;9.850;2024-03-08T05:57:55;100899.19;;;9.14;100.00
54546;BME280;40444;45.184;9.850;2024-03-08T06:00:25;100905.88;;;9.08;100.00
54546;BME280;40444;45.184;9.850;2024-03-08T06:02:54;100914.59;;;9.10;100.00
54546;BME280;40444;45.184;9.850;2024-03-08T06:05:24;100917.78;;;9.04;100.00
54546;BME280;40444;45.184;9.850;2024-03-08T06:07:53;100918.13;;;8.99;100.00
54546;BME280;40444;45.184;9.850;2024-03-08T06:10:22;100917.91;;;9.02;100.00
54546;BME280;40444;45.184;9.850;2024-03-08T06:12:51;100916.44;;;9.09;100.00
54546;BME280;40444;45.184;9.850;2024-03-08T06:15:19;100915.47;;;9.10;100.00
54546;BME280;40444;45.184;9.850;2024-03-08T06:17:49;100920.13;;;9.20;100.00
54546;BME280;40444;45.184;9.850;2024-03-08T06:20:18;100914.97;;;9.05;100.00
54546;BME280;40444;45.184;9.850;2024-03-08T06:22:46;100921.16;;;9.06;100.00
54546;BME280;40444;45.184;9.850;2024-03-08T06:25:15;100921.16;;;9.06;100.00
54546;BME280;40444;45.184;9.850;2024-03-08T06:27:44;100911.31;;;8.84;100.00
54546;BME280;40444;45.184;9.850;2024-03-08T06:30:14;100925.19;;;8.89;100.00
54546;BME280;40444;45.184;9.850;2024-03-08T06:32:44;100925.19;;;8.89;100.00
54546;BME280;40444;45.184;9.850;2024-03-08T06:35:12;100925.94;;;9.02;100.00
54546;BME280;40444;45.184;9.850;2024-03-08T06:37:44;100928.81;;;8.99;100.00
54546;BME280;40444;45.184;9.850;2024-03-08T06:40:13;100921.88;;;8.97;100.00
54546;BME280;40444;45.184;9.850;2024-03-08T06:42:42;100921.13;;;8.83;100.00
54546;BME280;40444;45.184;9.850;2024-03-08T06:45:11;100922.91;;;9.07;100.00
54546;BME280;40444;45.184;9.850;2024-03-08T06:47:41;100926.91;;;9.13;100.00
54546;BME280;40444;45.184;9.850;2024-03-08T06:50:10;100927.75;;;9.13;100.00
54546;BME280;40444;45.184;9.850;2024-03-08T06:52:39;100926.03;;;9.23;100.00
54546;BME280;40444;45.184;9.850;2024-03-08T06:55:08;100936.63;;;9.14;100.00
54546;BME280;40444;45.184;9.850;2024-03-08T06:57:40;100931.84;;;9.06;100.00
54546;BME280;40444;45.184;9.850;2024-03-08T07:00:10;100922.75;;;9.08;100.00
54546;BME280;40444;45.184;9.850;2024-03-08T07:02:41;100921.06;;;9.07;100.00
54546;BME280;40444;45.184;9.850;2024-03-08T07:05:10;100923.63;;;8.98;100.00
54546;BME280;40444;45.184;9.850;2024-03-08T07:07:39;100928.00;;;9.21;100.00
54546;BME280;40444;45.184;9.850;2024-03-08T07:10:09;100936.63;;;9.25;100.00
54546;BME280;40444;45.184;9.850;2024-03-08T07:12:43;100939.91;;;9.17;100.00
54546;BME280;40444;45.184;9.850;2024-03-08T07:15:13;100941.97;;;9.14;100.00
54546;BME280;40444;45.184;9.850;2024-03-08T07:17:44;100937.34;;;9.27;100.00
54546;BME280;40444;45.184;9.850;2024-03-08T07:20:14;100944.41;;;9.28;100.00
54546;BME280;40444;45.184;9.850;2024-03-08T07:22:47;100960.44;;;9.28;100.00
54546;BME280;40444;45.184;9.850;2024-03-08T07:25:19;100952.78;;;9.23;100.00
54546;BME280;40444;45.184;9.850;2024-03-08T07:27:53;100955.72;;;9.31;100.00
54546;BME280;40444;45.184;9.850;2024-03-08T07:30:25;100962.28;;;9.39;100.00
54546;BME280;40444;45.184;9.850;2024-03-08T07:33:12;100964.84;;;9.40;100.00
54546;BME280;40444;45.184;9.850;2024-03-08T07:35:42;100957.19;;;9.35;100.00
54546;BME280;40444;45.184;9.850;2024-03-08T07:38:12;100971.16;;;9.50;100.00
54546;BME280;40444;45.184;9.850;2024-03-08T07:40:41;100965.56;;;9.53;100.00
54546;BME280;40444;45.184;9.850;2024-03-08T07:43:13;100960.59;;;9.49;100.00
54546;BME280;40444;45.184;9.850;2024-03-08T07:45:41;100972.63;;;9.54;100.00
54546;BME280;40444;45.184;9.850;2024-03-08T07:48:10;100965.69;;;9.52;100.00
54546;BME280;40444;45.184;9.850;2024-03-08T07:50:40;100970.31;;;9.50;100.00
54546;BME280;40444;45.184;9.850;2024-03-08T07:53:09;100968.47;;;9.50;100.00
54546;BME280;40444;45.184;9.850;2024-03-08T07:55:41;100963.50;;;9.46;100.00
54546;BME280;40444;45.184;9.850;2024-03-08T07:58:11;100966.44;;;9.43;100.00
54546;BME280;40444;45.184;9.850;2024-03-08T08:00:39;100961.56;;;9.48;100.00
54546;BME280;40444;45.184;9.850;2024-03-08T08:03:11;100960.97;;;9.55;100.00
54546;BME280;40444;45.184;9.850;2024-03-08T08:05:41;100970.41;;;9.59;100.00
54546;BME280;40444;45.184;9.850;2024-03-08T08:08:10;100966.28;;;9.67;100.00
54546;BME280;40444;45.184;9.850;2024-03-08T08:10:39;100965.94;;;9.60;100.00
54546;BME280;40444;45.184;9.850;2024-03-08T08:13:07;100961.06;;;9.54;100.00
54546;BME280;40444;45.184;9.850;2024-03-08T08:15:36;100965.81;;;9.50;100.00
54546;BME280;40444;45.184;9.850;2024-03-08T08:18:05;100958.88;;;9.36;100.00
54546;BME280;40444;45.184;9.850;2024-03-08T08:20:34;100966.28;;;9.67;100.00
54546;BME280;40444;45.184;9.850;2024-03-08T08:23:03;100976.50;;;9.84;100.00
54546;BME280;40444;45.184;9.850;2024-03-08T08:25:32;100970.78;;;9.77;100.00
54546;BME280;40444;45.184;9.850;2024-03-08T08:28:03;100967.63;;;9.72;100.00
54546;BME280;40444;45.184;9.850;2024-03-08T08:30:37;100963.28;;;9.60;100.00
54546;BME280;40444;45.184;9.850;2024-03-08T08:33:07;100966.78;;;9.83;100.00
54546;BME280;40444;45.184;9.850;2024-03-08T08:35:37;100961.00;;;9.99;100.00
54546;BME280;40444;45.184;9.850;2024-03-08T08:38:13;100962.50;;;9.92;100.00
54546;BME280;40444;45.184;9.850;2024-03-08T08:41:07;100966.41;;;9.87;100.00
54546;BME280;40444;45.184;9.850;2024-03-08T08:43:36;100961.28;;;9.84;100.00
54546;BME280;40444;45.184;9.850;2024-03-08T08:46:17;100966.50;;;9.86;100.00
54546;BME280;40444;45.184;9.850;2024-03-08T08:48:48;100965.75;;;9.95;100.00
54546;BME280;40444;45.184;9.850;2024-03-08T08:51:17;100964.91;;;10.06;100.00
54546;BME280;40444;45.184;9.850;2024-03-08T08:53:45;100963.03;;;10.18;100.00
54546;BME280;40444;45.184;9.850;2024-03-08T08:56:15;100959.06;;;10.01;100.00
54546;BME280;40444;45.184;9.850;2024-03-08T08:58:44;100959.31;;;10.09;100.00
54546;BME280;40444;45.184;9.850;2024-03-08T09:01:13;100963.91;;;10.07;100.00
54546;BME280;40444;45.184;9.850;2024-03-08T09:03:42;100969.31;;;9.84;100.00
54546;BME280;40444;45.184;9.850;2024-03-08T09:06:15;100971.34;;;10.03;100.00
54546;BME280;40444;45.184;9.850;2024-03-08T09:08:44;100953.59;;;10.02;100.00
54546;BME280;40444;45.184;9.850;2024-03-08T09:11:14;100962.97;;;9.97;100.00
54546;BME280;40444;45.184;9.850;2024-03-08T09:13:46;100958.69;;;10.05;100.00
54546;BME280;40444;45.184;9.850;2024-03-08T09:16:15;100958.41;;;10.20;100.00
54546;BME280;40444;45.184;9.850;2024-03-08T09:18:44;100965.31;;;10.22;100.00
54546;BME280;40444;45.184;9.850;2024-03-08T09:21:14;100961.59;;;10.25;100.00
54546;BME280;40444;45.184;9.850;2024-03-08T09:23:42;100964.66;;;10.09;100.00
54546;BME280;40444;45.184;9.850;2024-03-08T09:26:13;100969.25;;;10.18;100.00
54546;BME280;40444;45.184;9.850;2024-03-08T09:28:55;100968.38;;;10.18;100.00
54546;BME280;40444;45.184;9.850;2024-03-08T09:31:24;100970.59;;;10.12;100.00
54546;BME280;40444;45.184;9.850;2024-03-08T09:33:52;100965.25;;;10.12;100.00
54546;BME280;40444;45.184;9.850;2024-03-08T09:36:21;100959.22;;;10.43;100.00
54546;BME280;40444;45.184;9.850;2024-03-08T09:38:50;100967.34;;;10.52;100.00
54546;BME280;40444;45.184;9.850;2024-03-08T09:41:19;100962.41;;;10.36;100.00
54546;BME280;40444;45.184;9.850;2024-03-08T09:43:48;100958.75;;;10.37;100.00
54546;BME280;40444;45.184;9.850;2024-03-08T09:46:19;100973.53;;;10.53;100.00
54546;BME280;40444;45.184;9.850;2024-03-08T09:48:48;100977.28;;;10.61;100.00
54546;BME280;40444;45.184;9.850;2024-03-08T09:51:17;100974.38;;;10.53;100.00
54546;BME280;40444;45.184;9.850;2024-03-08T09:53:46;100967.97;;;10.77;100.00
54546;BME280;40444;45.184;9.850;2024-03-08T09:56:14;100976.66;;;10.90;100.00
54546;BME280;40444;45.184;9.850;2024-03-08T09:58:43;100962.66;;;10.86;100.00
54546;BME280;40444;45.184;9.850;2024-03-08T10:01:30;100967.19;;;10.86;100.00
54546;BME280;40444;45.184;9.850;2024-03-08T10:03:59;100958.69;;;10.81;100.00
54546;BME280;40444;45.184;9.850;2024-03-08T10:06:28;100963.50;;;10.87;100.00
54546;BME280;40444;45.184;9.850;2024-03-08T10:08:57;100968.28;;;10.83;100.00
54546;BME280;40444;45.184;9.850;2024-03-08T10:11:26;100955.13;;;10.80;100.00
54546;BME280;40444;45.184;9.850;2024-03-08T10:13:55;100953.72;;;10.76;100.00
54546;BME280;40444;45.184;9.850;2024-03-08T10:16:23;100953.19;;;10.82;100.00
54546;BME280;40444;45.184;9.850;2024-03-08T10:18:56;100956.72;;;10.83;100.00
54546;BME280;40444;45.184;9.850;2024-03-08T10:21:25;100947.81;;;10.82;100.00
54546;BME280;40444;45.184;9.850;2024-03-08T10:23:53;100938.22;;;11.01;100.00
54546;BME280;40444;45.184;9.850;2024-03-08T10:26:22;100944.41;;;11.01;100.00
54546;BME280;40444;45.184;9.850;2024-03-08T10:28:55;100943.50;;;11.12;100.00
54546;BME280;40444;45.184;9.850;2024-03-08T10:31:43;100941.13;;;10.98;100.00
54546;BME280;40444;45.184;9.850;2024-03-08T10:34:22;100946.09;;;11.02;100.00
54546;BME280;40444;45.184;9.850;2024-03-08T10:36:55;100942.91;;;11.08;100.00
54546;BME280;40444;45.184;9.850;2024-03-08T10:39:41;100937.00;;;11.14;100.00
54546;BME280;40444;45.184;9.850;2024-03-08T10:42:19;100938.69;;;11.16;100.00
54546;BME280;40444;45.184;9.850;2024-03-08T10:45:06;100943.09;;;11.17;100.00
54546;BME280;40444;45.184;9.850;2024-03-08T10:47:41;100941.09;;;11.09;100.00
54546;BME280;40444;45.184;9.850;2024-03-08T10:50:18;100932.78;;;11.12;100.00
54546;BME280;40444;45.184;9.850;2024-03-08T10:52:50;100931.97;;;11.21;100.00
54546;BME280;40444;45.184;9.850;2024-03-08T10:55:20;100940.06;;;11.31;100.00
54546;BME280;40444;45.184;9.850;2024-03-08T10:57:51;100933.28;;;11.27;100.00
54546;BME280;40444;45.184;9.850;2024-03-08T11:00:36;100932.88;;;11.31;100.00
54546;BME280;40444;45.184;9.850;2024-03-08T11:06:31;100936.97;;;11.05;100.00
54546;BME280;40444;45.184;9.850;2024-03-08T11:10:18;100928.16;;;11.24;100.00
54546;BME280;40444;45.184;9.850;2024-03-08T11:12:21;100931.47;;;11.37;100.00
54546;BME280;40444;45.184;9.850;2024-03-08T11:14:51;100934.25;;;11.26;100.00
54546;BME280;40444;45.184;9.850;2024-03-08T11:20:02;100922.91;;;11.12;100.00
54546;BME280;40444;45.184;9.850;2024-03-08T11:22:38;100917.56;;;11.22;100.00
54546;BME280;40444;45.184;9.850;2024-03-08T11:25:37;100908.88;;;11.30;100.00
54546;BME280;40444;45.184;9.850;2024-03-08T11:28:19;100906.75;;;11.33;100.00
54546;BME280;40444;45.184;9.850;2024-03-08T11:33:28;100908.47;;;11.34;100.00
54546;BME280;40444;45.184;9.850;2024-03-08T11:38:43;100907.91;;;11.41;100.00
54546;BME280;40444;45.184;9.850;2024-03-08T11:41:31;100902.34;;;11.02;100.00
54546;BME280;40444;45.184;9.850;2024-03-08T11:44:05;100897.59;;;11.05;100.00
54546;BME280;40444;45.184;9.850;2024-03-08T11:46:34;100891.97;;;11.08;100.00
54546;BME280;40444;45.184;9.850;2024-03-08T11:49:03;100893.50;;;11.11;100.00
54546;BME280;40444;45.184;9.850;2024-03-08T11:51:35;100896.72;;;11.26;100.00
54546;BME280;40444;45.184;9.850;2024-03-08T11:54:11;100897.72;;;11.34;100.00
54546;BME280;40444;45.184;9.850;2024-03-08T11:56:48;100896.63;;;11.47;100.00
54546;BME280;40444;45.184;9.850;2024-03-08T11:59:22;100900.44;;;11.44;100.00
54546;BME280;40444;45.184;9.850;2024-03-08T12:02:02;100892.44;;;11.63;100.00
54546;BME280;40444;45.184;9.850;2024-03-08T12:04:32;100888.22;;;11.61;100.00
54546;BME280;40444;45.184;9.850;2024-03-08T12:07:02;100877.03;;;11.56;100.00
54546;BME280;40444;45.184;9.850;2024-03-08T12:09:37;100878.69;;;11.47;100.00
54546;BME280;40444;45.184;9.850;2024-03-08T12:12:06;100874.28;;;11.36;100.00
54546;BME280;40444;45.184;9.850;2024-03-08T12:14:35;100871.50;;;11.48;100.00
54546;BME280;40444;45.184;9.850;2024-03-08T12:17:05;100866.47;;;11.24;100.00
54546;BME280;40444;45.184;9.850;2024-03-08T12:19:34;100871.25;;;11.20;100.00
54546;BME280;40444;45.184;9.850;2024-03-08T12:22:09;100861.69;;;11.27;100.00
54546;BME280;40444;45.184;9.850;2024-03-08T12:24:38;100861.19;;;11.43;100.00
54546;BME280;40444;45.184;9.850;2024-03-08T12:27:19;100857.88;;;11.70;100.00
54546;BME280;40444;45.184;9.850;2024-03-08T12:29:48;100852.81;;;11.86;100.00
54546;BME280;40444;45.184;9.850;2024-03-08T12:32:18;100852.56;;;11.89;100.00
54546;BME280;40444;45.184;9.850;2024-03-08T12:34:52;100846.41;;;11.68;100.00
54546;BME280;40444;45.184;9.850;2024-03-08T12:37:22;100845.28;;;11.71;100.00
54546;BME280;40444;45.184;9.850;2024-03-08T12:39:54;100840.88;;;11.70;100.00
54546;BME280;40444;45.184;9.850;2024-03-08T12:42:24;100841.03;;;11.58;100.00
54546;BME280;40444;45.184;9.850;2024-03-08T12:44:54;100848.25;;;11.68;100.00
54546;BME280;40444;45.184;9.850;2024-03-08T12:47:22;100845.72;;;11.66;100.00
54546;BME280;40444;45.184;9.850;2024-03-08T12:49:51;100835.81;;;11.67;100.00
54546;BME280;40444;45.184;9.850;2024-03-08T12:52:20;100839.81;;;11.92;100.00
54546;BME280;40444;45.184;9.850;2024-03-08T12:54:49;100831.03;;;11.70;100.00
54546;BME280;40444;45.184;9.850;2024-03-08T12:57:18;100846.97;;;11.72;100.00
54546;BME280;40444;45.184;9.850;2024-03-08T12:59:46;100846.28;;;11.79;100.00
54546;BME280;40444;45.184;9.850;2024-03-08T13:02:17;100830.03;;;11.81;100.00
54546;BME280;40444;45.184;9.850;2024-03-08T13:04:46;100827.66;;;11.87;100.00
54546;BME280;40444;45.184;9.850;2024-03-08T13:07:28;100832.22;;;11.97;100.00
54546;BME280;40444;45.184;9.850;2024-03-08T13:09:58;100827.66;;;11.87;100.00
54546;BME280;40444;45.184;9.850;2024-03-08T13:12:28;100820.59;;;11.86;100.00
54546;BME280;40444;45.184;9.850;2024-03-08T13:14:57;100831.16;;;11.69;100.00
54546;BME280;40444;45.184;9.850;2024-03-08T13:17:26;100813.81;;;11.82;100.00